Observation data for Snyder on 02/13/2018      Previous  Date  Next       Current Mesonet Observations  Soil Data  Daily Summary Page  Observations in Plain Language
KSYS 130600Z 08008KT 02/M08 A3027 RMK A01 T00161082  RH  049%=      5-min Rain = 0
KSYS 130605Z 07008KT 02/M08 A3027 RMK A01 T00161082  RH  049%=      5-min Rain = 0
KSYS 130610Z 08007KT 02/M08 A3027 RMK A01 T00151082  RH  049%=      5-min Rain = 0
KSYS 130615Z 08008KT 01/M08 A3027 RMK A01 T00131082  RH  050%=      5-min Rain = 0
KSYS 130620Z 08008KT 01/M08 A3026 RMK A01 T00121083  RH  050%=      5-min Rain = 0
KSYS 130625Z 08008KT 01/M08 A3026 RMK A01 T00101083  RH  050%=      5-min Rain = 0
KSYS 130630Z 09009KT 01/M08 A3026 RMK A01 T00091084  RH  051%=      5-min Rain = 0
KSYS 130635Z 09009KT 01/M08 A3025 RMK A01 T00061084  RH  051%=      5-min Rain = 0
KSYS 130640Z 09008KT 00/M09 A3025 RMK A01 T00041085  RH  052%=      5-min Rain = 0
KSYS 130645Z 09008KT 00/M08 A3025 RMK A01 T00021084  RH  053%=      5-min Rain = 0
KSYS 130650Z 10008KT 00/M08 A3026 RMK A01 T00021081  RH  054%=      5-min Rain = 0
KSYS 130655Z 10008KT 00/M08 A3026 RMK A01 T00031079  RH  055%=      5-min Rain = 0
KSYS 130700Z 10008KT 00/M08 A3026 RMK A01 T00041077  RH  055%=      5-min Rain = 0
KSYS 130705Z 11007KT 00/M08 A3026 RMK A01 T00041076  RH  056%=      5-min Rain = 0
KSYS 130710Z 11007KT 00/M08 A3026 RMK A01 T00031076  RH  056%=      5-min Rain = 0
KSYS 130715Z 11007KT 00/M08 A3026 RMK A01 T00011075  RH  057%=      5-min Rain = 0
KSYS 130720Z 11007KT 00/M07 A3025 RMK A01 T00011073  RH  058%=      5-min Rain = 0
KSYS 130725Z 11007KT 00/M07 A3026 RMK A01 T00011071  RH  059%=      5-min Rain = 0
KSYS 130730Z 10006KT 00/M07 A3026 RMK A01 T00011070  RH  060%=      5-min Rain = 0
KSYS 130735Z 11005KT 00/07 A3026 RMK A01 T00000-69  RH  060%=      5-min Rain = 0
KSYS 130740Z 11006KT 00/07 A3026 RMK A01 T00-00-69  RH  061%=      5-min Rain = 0
KSYS 130745Z 12006KT M00/M07 A3025 RMK A01 T10021069  RH  061%=      5-min Rain = 0
KSYS 130750Z 12006KT M00/M07 A3025 RMK A01 T10031068  RH  062%=      5-min Rain = 0
KSYS 130755Z 12006KT M00/M07 A3025 RMK A01 T10041068  RH  063%=      5-min Rain = 0
KSYS 130800Z 12005KT M01/M07 A3025 RMK A01 T10051068  RH  064%=      5-min Rain = 0
KSYS 130805Z 12005KT M01/M07 A3025 RMK A01 T10071068  RH  064%=      5-min Rain = 0
KSYS 130810Z 11004KT M01/M07 A3025 RMK A01 T10081069  RH  064%=      5-min Rain = 0
KSYS 130815Z 10004KT M01/M07 A3025 RMK A01 T10081067  RH  065%=      5-min Rain = 0
KSYS 130820Z 10005KT M01/M07 A3025 RMK A01 T10071066  RH  065%=      5-min Rain = 0
KSYS 130825Z 10004KT M01/M06 A3025 RMK A01 T10061064  RH  066%=      5-min Rain = 0
KSYS 130830Z 10004KT M01/M06 A3025 RMK A01 T10051063  RH  065%=      5-min Rain = 0
KSYS 130835Z 11005KT M01/M07 A3025 RMK A01 T10051065  RH  064%=      5-min Rain = 0
KSYS 130840Z 11005KT M01/M07 A3025 RMK A01 T10071067  RH  065%=      5-min Rain = 0
KSYS 130845Z 11005KT M01/M07 A3025 RMK A01 T10081067  RH  065%=      5-min Rain = 0
KSYS 130850Z 11005KT M01/M07 A3025 RMK A01 T10091066  RH  066%=      5-min Rain = 0
KSYS 130855Z 10005KT M01/M07 A3025 RMK A01 T10091066  RH  066%=      5-min Rain = 0
KSYS 130900Z 09005KT M01/M07 A3025 RMK A01 T10081065  RH  066%=      5-min Rain = 0
KSYS 130905Z 08005KT M01/M06 A3025 RMK A01 T10081064  RH  066%=      5-min Rain = 0
KSYS 130910Z 09005KT M01/M06 A3026 RMK A01 T10081063  RH  067%=      5-min Rain = 0
KSYS 130915Z 08005KT M01/M07 A3026 RMK A01 T10081065  RH  066%=      5-min Rain = 0
KSYS 130920Z 08006KT M01/M07 A3026 RMK A01 T10101068  RH  065%=      5-min Rain = 0
KSYS 130925Z 08006KT M01/M07 A3025 RMK A01 T10111070  RH  065%=      5-min Rain = 0
KSYS 130930Z 08007KT M01/M07 A3025 RMK A01 T10111069  RH  065%=      5-min Rain = 0
KSYS 130935Z 08007KT M01/M07 A3025 RMK A01 T10121071  RH  065%=      5-min Rain = 0
KSYS 130940Z 07007KT M01/M07 A3026 RMK A01 T10131070  RH  066%=      5-min Rain = 0
KSYS 130945Z 08008KT M01/M07 A3026 RMK A01 T10131068  RH  067%=      5-min Rain = 0
KSYS 130950Z 09007KT M01/M07 A3026 RMK A01 T10121066  RH  067%=      5-min Rain = 0
KSYS 130955Z 09006KT M01/M07 A3026 RMK A01 T10131067  RH  067%=      5-min Rain = 0
KSYS 131000Z 09006KT M01/M07 A3025 RMK A01 T10141066  RH  068%=      5-min Rain = 0
KSYS 131005Z 09005KT M02/M07 A3025 RMK A01 T10151067  RH  068%=      5-min Rain = 0
KSYS 131010Z 09005KT M02/M07 A3025 RMK A01 T10161068  RH  069%=      5-min Rain = 0
KSYS 131015Z 08006KT M02/M07 A3025 RMK A01 T10161066  RH  070%=      5-min Rain = 0
KSYS 131020Z 09006KT M02/M06 A3025 RMK A01 T10151062  RH  071%=      5-min Rain = 0
KSYS 131025Z 08005KT M01/M06 A3025 RMK A01 T10131059  RH  072%=      5-min Rain = 0
KSYS 131030Z 08004KT M01/M06 A3025 RMK A01 T10111058  RH  071%=      5-min Rain = 0
KSYS 131035Z 06002KT M01/M06 A3026 RMK A01 T10101059  RH  070%=      5-min Rain = 0
KSYS 131040Z 04001KT M01/M06 A3026 RMK A01 T10111063  RH  069%=      5-min Rain = 0
KSYS 131045Z 01001KT M01/M07 A3026 RMK A01 T10121068  RH  067%=      5-min Rain = 0
KSYS 131050Z 06002KT M01/M07 A3026 RMK A01 T10131072  RH  065%=      5-min Rain = 0
KSYS 131055Z 07002KT M01/M07 A3027 RMK A01 T10131072  RH  065%=      5-min Rain = 0
KSYS 131100Z 07003KT M01/M07 A3027 RMK A01 T10111070  RH  065%=      5-min Rain = 0
KSYS 131105Z 05002KT M01/M07 A3028 RMK A01 T10081067  RH  065%=      5-min Rain = 0
KSYS 131110Z 04003KT M01/M07 A3028 RMK A01 T10051065  RH  065%=      5-min Rain = 0
KSYS 131115Z 03003KT M00/M06 A3029 RMK A01 T10031064  RH  064%=      5-min Rain = 0
KSYS 131120Z 02003KT M00/M06 A3029 RMK A01 T10021061  RH  065%=      5-min Rain = 0
KSYS 131125Z 02003KT M00/M06 A3029 RMK A01 T10011062  RH  064%=      5-min Rain = 0
KSYS 131130Z 01004KT 00/06 A3029 RMK A01 T00000-62  RH  064%=      5-min Rain = 0
KSYS 131135Z 02003KT 00/06 A3029 RMK A01 T00-00-63  RH  063%=      5-min Rain = 0
KSYS 131140Z 02003KT 00/06 A3029 RMK A01 T00-00-64  RH  063%=      5-min Rain = 0
KSYS 131145Z 01003KT 00/06 A3029 RMK A01 T00-00-64  RH  063%=      5-min Rain = 0
KSYS 131150Z 03003KT 00/07 A3029 RMK A01 T00-00-65  RH  063%=      5-min Rain = 0
KSYS 131155Z 07002KT 00/06 A303 RMK A01 T00-00-64  RH  063%=      5-min Rain = 0
KSYS 131200Z 04002KT 00/M06 A303 RMK A01 T00021060  RH  064%=      5-min Rain = 0
KSYS 131205Z 01002KT 00/M06 A303 RMK A01 T00031061  RH  063%=      5-min Rain = 0
KSYS 131210Z 03002KT 00/M07 A303 RMK A01 T00041065  RH  061%=      5-min Rain = 0
KSYS 131215Z 05002KT 00/M07 A303 RMK A01 T00031067  RH  060%=      5-min Rain = 0
KSYS 131220Z 06003KT 00/M06 A3029 RMK A01 T00041064  RH  061%=      5-min Rain = 0
KSYS 131225Z 08004KT 01/M06 A3029 RMK A01 T00061059  RH  063%=      5-min Rain = 0
KSYS 131230Z 09004KT 01/M06 A3029 RMK A01 T00081055  RH  063%=      5-min Rain = 0
KSYS 131235Z 08003KT 01/M06 A3029 RMK A01 T00101056  RH  062%=      5-min Rain = 0
KSYS 131240Z 08003KT 01/M06 A3029 RMK A01 T00111055  RH  062%=      5-min Rain = 0
KSYS 131245Z 08003KT 01/M05 A3029 RMK A01 T00121052  RH  063%=      5-min Rain = 0
KSYS 131250Z 09003KT 01/M05 A3029 RMK A01 T00131051  RH  063%=      5-min Rain = 0
KSYS 131255Z 09003KT 02/M05 A3029 RMK A01 T00151049  RH  063%=      5-min Rain = 0
KSYS 131300Z 09003KT 02/M05 A3029 RMK A01 T00161047  RH  064%=      5-min Rain = 0
KSYS 131305Z 08003KT 02/M05 A303 RMK A01 T00171046  RH  064%=      5-min Rain = 0
KSYS 131310Z 06003KT 02/M05 A3029 RMK A01 T00171046  RH  063%=      5-min Rain = 0
KSYS 131315Z 08003KT 02/M05 A303 RMK A01 T00181048  RH  062%=      5-min Rain = 0
KSYS 131320Z 09003KT 02/M05 A303 RMK A01 T00191048  RH  062%=      5-min Rain = 0
KSYS 131325Z 10004KT 02/M05 A303 RMK A01 T00191046  RH  063%=      5-min Rain = 0
KSYS 131330Z 11004KT 02/M04 A303 RMK A01 T00211044  RH  063%=      5-min Rain = 0
KSYS 131335Z 11005KT 02/M04 A303 RMK A01 T00221042  RH  064%=      5-min Rain = 0
KSYS 131340Z 11005KT 02/M04 A3031 RMK A01 T00231040  RH  064%=      5-min Rain = 0
KSYS 131345Z 10004KT 02/M04 A3031 RMK A01 T00231041  RH  063%=      5-min Rain = 0
KSYS 131350Z 10005KT 02/M04 A3031 RMK A01 T00231041  RH  063%=      5-min Rain = 0
KSYS 131355Z 11004KT 02/M04 A3031 RMK A01 T00241041  RH  063%=      5-min Rain = 0
KSYS 131400Z 11005KT 03/M04 A3031 RMK A01 T00261037  RH  064%=      5-min Rain = 0
KSYS 131405Z 11006KT 03/M03 A3031 RMK A01 T00291031  RH  065%=      5-min Rain = 0
KSYS 131410Z 11007KT 03/M03 A3032 RMK A01 T00331030  RH  064%=      5-min Rain = 0
KSYS 131415Z 11006KT 04/M03 A3032 RMK A01 T00351029  RH  064%=      5-min Rain = 0
KSYS 131420Z 11006KT 04/M03 A3032 RMK A01 T00361028  RH  063%=      5-min Rain = 0
KSYS 131425Z 11006KT 04/M03 A3032 RMK A01 T00371027  RH  063%=      5-min Rain = 0
KSYS 131430Z 10006KT 04/M03 A3032 RMK A01 T00381026  RH  064%=      5-min Rain = 0
KSYS 131435Z 10006KT 04/M02 A3032 RMK A01 T00381024  RH  064%=      5-min Rain = 0
KSYS 131440Z 11008KT 04/M02 A3032 RMK A01 T00391024  RH  064%=      5-min Rain = 0
KSYS 131445Z 11008KT 04/M02 A3033 RMK A01 T00401022  RH  064%=      5-min Rain = 0
KSYS 131450Z 11009KT 04/M02 A3033 RMK A01 T00421021  RH  064%=      5-min Rain = 0
KSYS 131455Z 11008KT 04/M02 A3033 RMK A01 T00441020  RH  064%=      5-min Rain = 0
KSYS 131500Z 12009KT 05/M02 A3033 RMK A01 T00461016  RH  065%=      5-min Rain = 0
KSYS 131505Z 12008KT 05/M02 A3034 RMK A01 T00481015  RH  064%=      5-min Rain = 0
KSYS 131510Z 12009KT 05/M02 A3034 RMK A01 T00491015  RH  064%=      5-min Rain = 0
KSYS 131515Z 11008KT 05/M02 A3034 RMK A01 T00501015  RH  063%=      5-min Rain = 0
KSYS 131520Z 12007KT 05/M01 A3034 RMK A01 T00521011  RH  064%=      5-min Rain = 0
KSYS 131525Z 12007KT 06/M01 A3034 RMK A01 T00551006  RH  066%=      5-min Rain = 0
KSYS 131530Z 12008KT 06/00 A3034 RMK A01 T00580004  RH  069%=      5-min Rain = 0
KSYS 131535Z 13008KT 06/01 A3035 RMK A01 T00610007  RH  069%=      5-min Rain = 0
KSYS 131540Z 14009KT 06/01 A3035 RMK A01 T00610009  RH  070%=      5-min Rain = 0
KSYS 131545Z 14009KT 06/01 A3034 RMK A01 T00610014  RH  073%=      5-min Rain = 0
KSYS 131550Z 14010KT 07/02 A3034 RMK A01 T00650016  RH  072%=      5-min Rain = 0
KSYS 131555Z 14008KT 07/02 A3035 RMK A01 T00680015  RH  070%=      5-min Rain = 0
KSYS 131600Z 15010KT 07/01 A3035 RMK A01 T00660014  RH  070%=      5-min Rain = 0
KSYS 131605Z 15008KT 06/01 A3035 RMK A01 T00630010  RH  070%=      5-min Rain = 0
KSYS 131610Z 14008KT 06/01 A3035 RMK A01 T00610007  RH  069%=      5-min Rain = 0
KSYS 131615Z 14009KT 06/01 A3035 RMK A01 T00610006  RH  069%=      5-min Rain = 0
KSYS 131620Z 14008KT 06/01 A3035 RMK A01 T00630008  RH  069%=      5-min Rain = 0
KSYS 131625Z 15009KT 07/01 A3034 RMK A01 T00680008  RH  066%=      5-min Rain = 0
KSYS 131630Z 14010KT 07/01 A3034 RMK A01 T00710006  RH  064%=      5-min Rain = 0
KSYS 131635Z 13010KT 08/01 A3034 RMK A01 T00750006  RH  062%=      5-min Rain = 0
KSYS 131640Z 14010KT 08/01 A3034 RMK A01 T00800011  RH  063%=      5-min Rain = 0
KSYS 131645Z 14009KT 08/01 A3034 RMK A01 T00840013  RH  062%=      5-min Rain = 0
KSYS 131650Z 13010KT 09/01 A3034 RMK A01 T00870012  RH  060%=      5-min Rain = 0
KSYS 131655Z 14009G14KT 09/01 A3034 RMK A01 T00890011  RH  059%=      5-min Rain = 0
KSYS 131700Z 14009KT 09/01 A3034 RMK A01 T00910012  RH  058%=      5-min Rain = 0
KSYS 131705Z 12009KT 09/01 A3033 RMK A01 T00920012  RH  058%=      5-min Rain = 0
KSYS 131710Z 14008KT 09/01 A3034 RMK A01 T00910013  RH  059%=      5-min Rain = 0
KSYS 131715Z 14009KT 09/02 A3034 RMK A01 T00900015  RH  060%=      5-min Rain = 0
KSYS 131720Z 14010KT 09/02 A3034 RMK A01 T00910018  RH  061%=      5-min Rain = 0
KSYS 131725Z 16009KT 09/02 A3034 RMK A01 T00930022  RH  062%=      5-min Rain = 0
KSYS 131730Z 16012G18KT 10/03 A3034 RMK A01 T00970033  RH  065%=      5-min Rain = 0
KSYS 131735Z 18010G15KT 10/04 A3034 RMK A01 T00980038  RH  067%=      5-min Rain = 0
KSYS 131740Z 17009KT 10/04 A3035 RMK A01 T00990038  RH  067%=      5-min Rain = 0
KSYS 131745Z 17011KT 10/04 A3035 RMK A01 T00970037  RH  067%=      5-min Rain = 0
KSYS 131750Z 18011KT 10/04 A3035 RMK A01 T00960036  RH  067%=      5-min Rain = 0
KSYS 131755Z 19009KT 10/04 A3035 RMK A01 T00970035  RH  066%=      5-min Rain = 0
KSYS 131800Z 18010KT 10/04 A3034 RMK A01 T01000035  RH  065%=      5-min Rain = 0
KSYS 131805Z 18011KT 10/03 A3034 RMK A01 T01010034  RH  064%=      5-min Rain = 0
KSYS 131810Z 19008KT 11/04 A3034 RMK A01 T01070035  RH  062%=      5-min Rain = 0
KSYS 131815Z 19008G13KT 12/04 A3033 RMK A01 T01160036  RH  059%=      5-min Rain = 0
KSYS 131820Z 19010KT 12/04 A3033 RMK A01 T01180037  RH  058%=      5-min Rain = 0
KSYS 131825Z 19008KT 12/04 A3032 RMK A01 T01220039  RH  058%=      5-min Rain = 0
KSYS 131830Z 18009KT 13/04 A3032 RMK A01 T01260040  RH  056%=      5-min Rain = 0
KSYS 131835Z 18006KT 13/04 A3032 RMK A01 T01300041  RH  055%=      5-min Rain = 0
KSYS 131840Z 17007KT 13/04 A3031 RMK A01 T01290041  RH  056%=      5-min Rain = 0
KSYS 131845Z 18007KT 13/04 A3031 RMK A01 T01290044  RH  057%=      5-min Rain = 0
KSYS 131850Z 17009KT 13/05 A3031 RMK A01 T01310045  RH  057%=      5-min Rain = 0
KSYS 131855Z 17010G16KT 13/04 A303 RMK A01 T01330044  RH  055%=      5-min Rain = 0
KSYS 131900Z 17013KT 13/05 A303 RMK A01 T01300049  RH  058%=      5-min Rain = 0
KSYS 131905Z 18013KT 13/05 A303 RMK A01 T01300048  RH  058%=      5-min Rain = 0
KSYS 131910Z 19012KT 13/05 A303 RMK A01 T01340047  RH  056%=      5-min Rain = 0
KSYS 131915Z 18010G15KT 14/05 A303 RMK A01 T01370046  RH  055%=      5-min Rain = 0
KSYS 131920Z 18009G14KT 14/05 A3029 RMK A01 T01380047  RH  055%=      5-min Rain = 0
KSYS 131925Z 19009KT 14/05 A3029 RMK A01 T01400046  RH  054%=      5-min Rain = 0
KSYS 131930Z 17009G14KT 14/05 A3029 RMK A01 T01400045  RH  053%=      5-min Rain = 0
KSYS 131935Z 16008G14KT 14/05 A3029 RMK A01 T01440046  RH  052%=      5-min Rain = 0
KSYS 131940Z 18008G14KT 15/05 A3029 RMK A01 T01490046  RH  051%=      5-min Rain = 0
KSYS 131945Z 18009G14KT 15/05 A3028 RMK A01 T01510048  RH  051%=      5-min Rain = 0
KSYS 131950Z 17009G14KT 15/05 A3028 RMK A01 T01500048  RH  051%=      5-min Rain = 0
KSYS 131955Z 20008KT 15/05 A3028 RMK A01 T01510048  RH  051%=      5-min Rain = 0
KSYS 132000Z 18009KT 16/05 A3028 RMK A01 T01550049  RH  050%=      5-min Rain = 0
KSYS 132005Z 19007KT 16/05 A3028 RMK A01 T01610051  RH  049%=      5-min Rain = 0
KSYS 132010Z 17009KT 16/05 A3027 RMK A01 T01620052  RH  049%=      5-min Rain = 0
KSYS 132015Z 18010KT 16/05 A3027 RMK A01 T01620052  RH  049%=      5-min Rain = 0
KSYS 132020Z 19008KT 16/05 A3026 RMK A01 T01620053  RH  049%=      5-min Rain = 0
KSYS 132025Z 17007G13KT 17/05 A3026 RMK A01 T01690054  RH  047%=      5-min Rain = 0
KSYS 132030Z 18009G14KT 17/06 A3026 RMK A01 T01730056  RH  047%=      5-min Rain = 0
KSYS 132035Z 17011G17KT 18/06 A3026 RMK A01 T01750059  RH  047%=      5-min Rain = 0
KSYS 132040Z 16012G17KT 17/06 A3025 RMK A01 T01740060  RH  048%=      5-min Rain = 0
KSYS 132045Z 18009G14KT 18/06 A3025 RMK A01 T01750060  RH  047%=      5-min Rain = 0
KSYS 132050Z 18007KT 18/06 A3025 RMK A01 T01810060  RH  045%=      5-min Rain = 0
KSYS 132055Z 17006KT 18/06 A3024 RMK A01 T01810061  RH  046%=      5-min Rain = 0
KSYS 132100Z 17008G14KT 18/07 A3024 RMK A01 T01840068  RH  047%=      5-min Rain = 0
KSYS 132105Z 17011G18KT 19/08 A3024 RMK A01 T01910077  RH  048%=      5-min Rain = 0
KSYS 132110Z 16012G19KT 19/08 A3023 RMK A01 T01910078  RH  048%=      5-min Rain = 0
KSYS 132115Z 17013G18KT 19/08 A3023 RMK A01 T01920079  RH  049%=      5-min Rain = 0
KSYS 132120Z 18013G22KT 19/08 A3023 RMK A01 T01920079  RH  049%=      5-min Rain = 0
KSYS 132125Z 19015KT 19/08 A3023 RMK A01 T01890078  RH  049%=      5-min Rain = 0
KSYS 132130Z 18011G19KT 19/08 A3023 RMK A01 T01870078  RH  050%=      5-min Rain = 0
KSYS 132135Z 20012G19KT 19/08 A3023 RMK A01 T01900078  RH  049%=      5-min Rain = 0
KSYS 132140Z 19014G20KT 19/08 A3022 RMK A01 T01900079  RH  049%=      5-min Rain = 0
KSYS 132145Z 18014G20KT 19/08 A3022 RMK A01 T01900079  RH  049%=      5-min Rain = 0
KSYS 132150Z 18014G20KT 19/08 A3022 RMK A01 T01900081  RH  050%=      5-min Rain = 0
KSYS 132155Z 17014G21KT 19/08 A3022 RMK A01 T01900082  RH  050%=      5-min Rain = 0
KSYS 132200Z 16011G19KT 19/08 A3022 RMK A01 T01920082  RH  050%=      5-min Rain = 0
KSYS 132205Z 16012G20KT 19/08 A3022 RMK A01 T01930083  RH  050%=      5-min Rain = 0
KSYS 132210Z 18011G17KT 20/08 A3022 RMK A01 T01960084  RH  049%=      5-min Rain = 0
KSYS 132215Z 18013KT 19/08 A3021 RMK A01 T01940084  RH  050%=      5-min Rain = 0
KSYS 132220Z 17013G18KT 19/09 A3021 RMK A01 T01910085  RH  051%=      5-min Rain = 0
KSYS 132225Z 18012G17KT 19/09 A3021 RMK A01 T01910086  RH  051%=      5-min Rain = 0
KSYS 132230Z 18014G19KT 19/09 A3022 RMK A01 T01910087  RH  052%=      5-min Rain = 0
KSYS 132235Z 17014G19KT 19/09 A3022 RMK A01 T01890088  RH  053%=      5-min Rain = 0
KSYS 132240Z 18012G17KT 19/09 A3022 RMK A01 T01900089  RH  053%=      5-min Rain = 0
KSYS 132245Z 18012KT 19/09 A3022 RMK A01 T01910089  RH  052%=      5-min Rain = 0
KSYS 132250Z 18012G17KT 19/09 A3022 RMK A01 T01910089  RH  052%=      5-min Rain = 0
KSYS 132255Z 17014KT 19/09 ANAN RMK A01 T01900090  RH  053%=      5-min Rain = 0
KSYS 132300Z 17011KT 19/09 A3021 RMK A01 T01890091  RH  054%=      5-min Rain = 0
KSYS 132305Z 17013KT 19/09 A3021 RMK A01 T01870090  RH  054%=      5-min Rain = 0
KSYS 132310Z 16012KT 18/09 A3021 RMK A01 T01840090  RH  055%=      5-min Rain = 0
KSYS 132315Z 17011KT 18/09 A3021 RMK A01 T01830090  RH  055%=      5-min Rain = 0
KSYS 132320Z 17012KT 18/09 A3022 RMK A01 T01810090  RH  056%=      5-min Rain = 0
KSYS 132325Z 16012KT 18/09 A3022 RMK A01 T01780090  RH  057%=      5-min Rain = 0
KSYS 132330Z 17010KT 18/09 A3022 RMK A01 T01760090  RH  058%=      5-min Rain = 0
KSYS 132335Z 17011G16KT 18/09 A3022 RMK A01 T01760090  RH  058%=      5-min Rain = 0
KSYS 132340Z 17010KT 18/09 A3022 RMK A01 T01750091  RH  058%=      5-min Rain = 0
KSYS 132345Z 17011KT 17/09 A3022 RMK A01 T01740091  RH  059%=      5-min Rain = 0
KSYS 132350Z 16012G17KT 17/09 A3022 RMK A01 T01730091  RH  060%=      5-min Rain = 0
KSYS 132355Z 16011KT 17/09 A3023 RMK A01 T01710091  RH  060%=      5-min Rain = 0
KSYS 140000Z 17011KT 17/09 A3023 RMK A01 T01690091  RH  061%=      5-min Rain = 0
KSYS 140005Z 16011KT 17/09 A3023 RMK A01 T01680091  RH  061%=      5-min Rain = 0
KSYS 140010Z 16010KT 17/09 A3024 RMK A01 T01650090  RH  062%=      5-min Rain = 0
KSYS 140015Z 16011KT 16/09 A3024 RMK A01 T01620091  RH  064%=      5-min Rain = 0
KSYS 140020Z 15010KT 16/09 A3023 RMK A01 T01600091  RH  064%=      5-min Rain = 0
KSYS 140025Z 15009KT 16/09 A3024 RMK A01 T01570090  RH  065%=      5-min Rain = 0
KSYS 140030Z 15008KT 16/09 A3024 RMK A01 T01550090  RH  066%=      5-min Rain = 0
KSYS 140035Z 15009KT 15/09 A3023 RMK A01 T01530089  RH  067%=      5-min Rain = 0
KSYS 140040Z 15009KT 15/09 A3023 RMK A01 T01510089  RH  068%=      5-min Rain = 0
KSYS 140045Z 15009KT 15/09 A3023 RMK A01 T01490089  RH  068%=      5-min Rain = 0
KSYS 140050Z 15009KT 15/09 A3023 RMK A01 T01470089  RH  069%=      5-min Rain = 0
KSYS 140055Z 15008KT 15/09 A3023 RMK A01 T01450088  RH  070%=      5-min Rain = 0
KSYS 140100Z 15008KT 14/09 A3023 RMK A01 T01430088  RH  071%=      5-min Rain = 0
KSYS 140105Z 15008KT 14/09 A3023 RMK A01 T01410088  RH  071%=      5-min Rain = 0
KSYS 140110Z 15008KT 14/09 A3024 RMK A01 T01390087  RH  072%=      5-min Rain = 0
KSYS 140115Z 15008KT 14/09 A3024 RMK A01 T01380087  RH  072%=      5-min Rain = 0
KSYS 140120Z 15008KT 14/09 A3024 RMK A01 T01360086  RH  073%=      5-min Rain = 0
KSYS 140125Z 14008KT 13/09 A3024 RMK A01 T01340085  RH  073%=      5-min Rain = 0
KSYS 140130Z 15008KT 13/09 A3024 RMK A01 T01320085  RH  074%=      5-min Rain = 0
KSYS 140135Z 15008KT 13/09 A3024 RMK A01 T01320086  RH  075%=      5-min Rain = 0
KSYS 140140Z 15009KT 13/09 A3024 RMK A01 T01320087  RH  075%=      5-min Rain = 0
KSYS 140145Z 15009KT 13/09 A3024 RMK A01 T01330089  RH  076%=      5-min Rain = 0
KSYS 140150Z 15009KT 13/09 A3024 RMK A01 T01340091  RH  077%=      5-min Rain = 0
KSYS 140155Z 15009KT 13/09 A3024 RMK A01 T01340092  RH  077%=      5-min Rain = 0
KSYS 140200Z 15009KT 13/09 A3024 RMK A01 T01340093  RH  077%=      5-min Rain = 0
KSYS 140205Z 15009KT 13/09 A3024 RMK A01 T01340094  RH  078%=      5-min Rain = 0
KSYS 140210Z 15009KT 13/09 A3024 RMK A01 T01340094  RH  078%=      5-min Rain = 0
KSYS 140215Z 15009KT 13/09 A3024 RMK A01 T01330094  RH  079%=      5-min Rain = 0
KSYS 140220Z 15008KT 13/09 A3024 RMK A01 T01320094  RH  079%=      5-min Rain = 0
KSYS 140225Z 16009KT 13/10 A3024 RMK A01 T01310095  RH  080%=      5-min Rain = 0
KSYS 140230Z 16009KT 13/10 A3024 RMK A01 T01300095  RH  081%=      5-min Rain = 0
KSYS 140235Z 16009KT 13/10 A3024 RMK A01 T01290096  RH  081%=      5-min Rain = 0
KSYS 140240Z 16009KT 13/10 A3024 RMK A01 T01290096  RH  082%=      5-min Rain = 0
KSYS 140245Z 15009KT 13/10 A3024 RMK A01 T01270096  RH  083%=      5-min Rain = 0
KSYS 140250Z 15009KT 13/10 A3024 RMK A01 T01250096  RH  084%=      5-min Rain = 0
KSYS 140255Z 16009KT 12/10 A3025 RMK A01 T01240096  RH  084%=      5-min Rain = 0
KSYS 140300Z 17008KT 12/10 A3025 RMK A01 T01230096  RH  085%=      5-min Rain = 0
KSYS 140305Z 16008KT 12/10 A3025 RMK A01 T01230096  RH  085%=      5-min Rain = 0
KSYS 140310Z 16008KT 12/10 A3025 RMK A01 T01210095  RH  085%=      5-min Rain = 0
KSYS 140315Z 16007KT 12/10 A3025 RMK A01 T01200095  RH  086%=      5-min Rain = 0
KSYS 140320Z 16008KT 12/10 A3025 RMK A01 T01190096  RH  087%=      5-min Rain = 0
KSYS 140325Z 16008KT 12/10 A3025 RMK A01 T01190096  RH  087%=      5-min Rain = 0
KSYS 140330Z 16008KT 12/10 A3025 RMK A01 T01180096  RH  087%=      5-min Rain = 0
KSYS 140335Z 16008KT 12/10 A3025 RMK A01 T01170096  RH  088%=      5-min Rain = 0
KSYS 140340Z 17009KT 12/10 A3025 RMK A01 T01160096  RH  089%=      5-min Rain = 0
KSYS 140345Z 17008KT 12/10 A3026 RMK A01 T01160096  RH  089%=      5-min Rain = 0
KSYS 140350Z 17008KT 12/10 A3026 RMK A01 T01150096  RH  089%=      5-min Rain = 0
KSYS 140355Z 16007KT 11/10 A3026 RMK A01 T01140095  RH  090%=      5-min Rain = 0
KSYS 140400Z 16007KT 11/10 A3025 RMK A01 T01130095  RH  090%=      5-min Rain = 0
KSYS 140405Z 16008KT 11/09 A3026 RMK A01 T01110094  RH  091%=      5-min Rain = 0
KSYS 140410Z 16008KT 11/09 A3025 RMK A01 T01100093  RH  091%=      5-min Rain = 0
KSYS 140415Z 15008KT 11/09 A3025 RMK A01 T01090093  RH  091%=      5-min Rain = 0
KSYS 140420Z 16008KT 11/09 A3025 RMK A01 T01080094  RH  092%=      5-min Rain = 0
KSYS 140425Z 16008KT 11/09 A3025 RMK A01 T01080093  RH  092%=      5-min Rain = 0
KSYS 140430Z 16008KT 11/09 A3025 RMK A01 T01070093  RH  093%=      5-min Rain = 0
KSYS 140435Z 16007KT 11/09 A3026 RMK A01 T01060093  RH  093%=      5-min Rain = 0
KSYS 140440Z 16007KT 11/09 A3025 RMK A01 T01050091  RH  093%=      5-min Rain = 0
KSYS 140445Z 17006KT 10/09 A3025 RMK A01 T01030090  RH  094%=      5-min Rain = 0
KSYS 140450Z 17006KT 10/09 A3025 RMK A01 T01020091  RH  094%=      5-min Rain = 0
KSYS 140455Z 17007KT 10/09 A3025 RMK A01 T01010091  RH  095%=      5-min Rain = 0
KSYS 140500Z 17007KT 10/09 A3025 RMK A01 T01010091  RH  095%=      5-min Rain = 0
KSYS 140505Z 17008KT 10/09 A3026 RMK A01 T01000091  RH  095%=      5-min Rain = 0
KSYS 140510Z 17008KT 10/09 A3025 RMK A01 T00990090  RH  096%=      5-min Rain = 0
KSYS 140515Z 17008KT 10/09 A3025 RMK A01 T00980090  RH  096%=      5-min Rain = 0
KSYS 140520Z 17008KT 10/09 A3025 RMK A01 T00970089  RH  096%=      5-min Rain = 0
KSYS 140525Z 17008KT 10/09 A3025 RMK A01 T00960088  RH  097%=      5-min Rain = 0
KSYS 140530Z 17008KT 10/09 A3025 RMK A01 T00950088  RH  097%=      5-min Rain = 0
KSYS 140535Z 17008KT 09/09 A3025 RMK A01 T00940087  RH  097%=      5-min Rain = 0
KSYS 140540Z 17007KT 09/09 A3025 RMK A01 T00930087  RH  097%=      5-min Rain = 0
KSYS 140545Z 18007KT 09/09 A3025 RMK A01 T00920086  RH  098%=      5-min Rain = 0
KSYS 140550Z 18007KT 09/09 A3025 RMK A01 T00910086  RH  098%=      5-min Rain = 0
KSYS 140555Z 18007KT 09/09 A3025 RMK A01 T00910086  RH  098%=      5-min Rain = 0

Page generated in 0.0093 seconds.